Time;durP1;ratioP1;P1;durP2;ratioP2;P2;SDS_P1;SDS_P2;PMS_P1;PMS_P2;Temp;Humidity;BMP_temperature;BMP_pressure;BME280_temperature;BME280_humidity;BME280_pressure;Samples;Min_cycle;Max_cycle;Signal;HPM_P1;HPM_P2
2021/07/04 00:00:14;;;;;;;;;;;;;;;;;;5106548;28;19978;-70
2021/07/04 00:02:41;;;;;;;;;;;;;;;;;;5103899;28;19931;-70
2021/07/04 00:05:10;;;;;;;;;;;;;;;;;;5106118;28;20424;-69
2021/07/04 00:07:41;;;;;;;;;;;;;;;;;;5108025;28;19930;-70
2021/07/04 00:10:08;;;;;;;;;;;;;;;;;;5103608;28;19990;-69
2021/07/04 00:12:35;;;;;;;;;;;;;;;;;;5103425;28;19936;-69
2021/07/04 00:15:02;;;;;;;;;;;;;;;;;;5110425;28;20005;-69
2021/07/04 00:17:29;;;;;;;;;;;;;;;;;;5107647;28;19978;-69
2021/07/04 00:19:56;;;;;;;;;;;;;;;;;;5107825;28;19930;-70
2021/07/04 00:22:23;;;;;;;;;;;;;;;;;;5111415;28;19924;-70
2021/07/04 00:24:50;;;;;;;;;;;;;;;;;;5099383;28;20362;-70
2021/07/04 00:27:17;;;;;;;;;;;;;;;;;;5102630;28;19925;-70
2021/07/04 00:29:44;;;;;;;;;;;;;;;;;;5106698;28;20310;-69
2021/07/04 00:32:11;;;;;;;;;;;;;;;;;;5103202;28;19975;-70
2021/07/04 00:34:38;;;;;;;;;;;;;;;;;;5110185;28;19924;-70
2021/07/04 00:37:05;;;;;;;;;;;;;;;;;;5101562;28;19939;-70
2021/07/04 00:39:32;;;;;;;;;;;;;;;;;;5104631;28;20409;-70
2021/07/04 00:41:59;;;;;;;;;;;;;;;;;;5102617;28;19924;-70
2021/07/04 00:44:26;;;;;;;;;;;;;;;;;;5108876;28;19930;-70
2021/07/04 00:46:52;;;;;;;;;;;;;;;;;;5104183;28;20671;-70
2021/07/04 00:49:19;;;;;;;;;;;;;;;;;;5103196;28;19924;-70
2021/07/04 00:51:46;;;;;;;;;;;;;;;;;;5099126;28;20384;-69
2021/07/04 00:54:13;;;;;;;;;;;;;;;;;;5103925;28;20003;-71
2021/07/04 00:56:40;;;;;;;;;;;;;;;;;;5102874;28;20011;-70
2021/07/04 00:59:07;;;;;;;;;;;;;;;;;;5105290;28;20006;-69
2021/07/04 01:01:37;;;;;;;;;;;;;;;;;;5106989;28;19924;-70
2021/07/04 01:04:04;;;;;;;;;;;;;;;;;;5101620;28;19931;-70
2021/07/04 01:06:31;;;;;;;;;;;;;;;;;;5102076;28;19928;-70
2021/07/04 01:08:58;;;;;;;;;;;;;;;;;;5103811;28;20038;-71
2021/07/04 01:11:25;;;;;;;;;;;;;;;;;;5100767;28;19927;-70
2021/07/04 01:13:52;;;;;;;;;;;;;;;;;;5109162;28;19930;-70
2021/07/04 01:16:19;;;;;;;;;;;;;;;;;;5103487;28;20386;-70
2021/07/04 01:18:46;;;;;;;;;;;;;;;;;;5102567;28;20057;-70
2021/07/04 01:21:13;;;;;;;;;;;;;;;;;;5101838;28;19931;-71
2021/07/04 01:23:40;;;;;;;;;;;;;;;;;;5100492;28;20023;-70
2021/07/04 01:26:07;;;;;;;;;;;;;;;;;;5103408;28;19975;-71
2021/07/04 01:28:34;;;;;;;;;;;;;;;;;;5100948;28;20015;-71
2021/07/04 01:31:01;;;;;;;;;;;;;;;;;;5107770;28;19950;-70
2021/07/04 01:33:28;;;;;;;;;;;;;;;;;;5109475;28;19928;-70
2021/07/04 01:35:55;;;;;;;;;;;;;;;;;;5101540;28;20341;-70
2021/07/04 01:38:22;;;;;;;;;;;;;;;;;;5109018;28;20311;-69
2021/07/04 01:40:49;;;;;;;;;;;;;;;;;;5107502;28;19924;-70
2021/07/04 01:43:16;;;;;;;;;;;;;;;;;;5102669;28;20299;-70
2021/07/04 01:45:43;;;;;;;;;;;;;;;;;;5105160;28;19932;-70
2021/07/04 01:48:10;;;;;;;;;;;;;;;;;;5104822;28;20406;-69
2021/07/04 01:50:37;;;;;;;;;;;;;;;;;;5101759;28;19987;-69
2021/07/04 01:53:04;;;;;;;;;;;;;;;;;;5097086;28;19932;-69
2021/07/04 01:55:31;;;;;;;;;;;;;;;;;;5110052;28;20466;-69
2021/07/04 01:57:58;;;;;;;;;;;;;;;;;;5109295;28;19923;-68
2021/07/04 02:00:25;;;;;;;;;;;;;;;;;;5096339;28;19924;-70
2021/07/04 02:02:52;;;;;;;;;;;;;;;;;;5103666;28;20307;-69
2021/07/04 02:05:19;;;;;;;;;;;;;;;;;;5109197;28;19930;-69
2021/07/04 02:07:46;;;;;;;;;;;;;;;;;;5105143;28;19935;-69
2021/07/04 02:10:13;;;;;;;;;;;;;;;;;;5113512;27;19931;-69
2021/07/04 02:12:40;;;;;;;;;;;;;;;;;;5104522;28;19978;-69
2021/07/04 02:15:07;;;;;;;;;;;;;;;;;;5105706;27;19930;-69
2021/07/04 02:17:34;;;;;;;;;;;;;;;;;;5112454;27;20414;-69
2021/07/04 02:20:01;;;;;;;;;;;;;;;;;;5107613;27;20022;-70
2021/07/04 02:22:28;;;;;;;;;;;;;;;;;;5112303;27;19924;-69
2021/07/04 02:24:55;;;;;;;;;;;;;;;;;;5111142;27;19924;-68
2021/07/04 02:27:22;;;;;;;;;;;;;;;;;;5110212;28;19927;-69
2021/07/04 02:29:49;;;;;;;;;;;;;;;;;;5110138;28;19923;-69
2021/07/04 02:32:16;;;;;;;;;;;;;;;;;;5112123;28;20003;-70
2021/07/04 02:34:43;;;;;;;;;;;;;;;;;;5112852;28;19923;-69
2021/07/04 02:37:10;;;;;;;;;;;;;;;;;;5111482;28;19923;-69
2021/07/04 02:39:37;;;;;;;;;;;;;;;;;;5108577;27;20040;-70
2021/07/04 02:42:04;;;;;;;;;;;;;;;;;;5112350;28;19924;-69
2021/07/04 02:44:31;;;;;;;;;;;;;;;;;;5109646;28;19934;-68
2021/07/04 02:46:58;;;;;;;;;;;;;;;;;;5108808;27;19946;-68
2021/07/04 02:49:25;;;;;;;;;;;;;;;;;;5105566;27;19924;-68
2021/07/04 02:51:52;;;;;;;;;;;;;;;;;;5098529;28;19924;-69
2021/07/04 02:54:19;;;;;;;;;;;;;;;;;;5108169;27;19924;-67
2021/07/04 02:56:46;;;;;;;;;;;;;;;;;;5109914;28;20303;-70
2021/07/04 02:59:13;;;;;;;;;;;;;;;;;;5106050;27;19924;-69
2021/07/04 03:01:40;;;;;;;;;;;;;;;;;;5110675;27;19935;-70
2021/07/04 03:04:06;;;;;;;;;;;;;;;;;;5105929;28;19930;-69
2021/07/04 03:06:33;;;;;;;;;;;;;;;;;;5102821;27;19947;-69
2021/07/04 03:09:00;;;;;;;;;;;;;;;;;;5108929;27;19928;-69
2021/07/04 03:11:27;;;;;;;;;;;;;;;;;;5110229;28;19928;-69
2021/07/04 03:13:54;;;;;;;;;;;;;;;;;;5109293;28;19923;-69
2021/07/04 03:16:21;;;;;;;;;;;;;;;;;;5109292;28;19928;-69
2021/07/04 03:18:48;;;;;;;;;;;;;;;;;;5107059;28;20210;-69
2021/07/04 03:21:15;;;;;;;;;;;;;;;;;;5103626;28;19930;-69
2021/07/04 03:23:42;;;;;;;;;;;;;;;;;;5110763;28;20382;-69
2021/07/04 03:26:09;;;;;;;;;;;;;;;;;;5110038;28;20302;-69
2021/07/04 03:28:36;;;;;;;;;;;;;;;;;;5109766;28;19924;-69
2021/07/04 03:31:03;;;;;;;;;;;;;;;;;;5108644;28;19924;-67
2021/07/04 03:33:30;;;;;;;;;;;;;;;;;;5109166;28;19923;-69
2021/07/04 03:35:57;;;;;;;;;;;;;;;;;;5097617;22;20411;-63
2021/07/04 03:38:24;;;;;;;;;;;;;;;;;;5051896;28;20361;-64
2021/07/04 03:40:51;;;;;;;;;;;;;;;;;;5051136;28;20388;-64
2021/07/04 03:43:18;;;;;;;;;;;;;;;;;;5048838;28;19931;-64
2021/07/04 03:45:45;;;;;;;;;;;;;;;;;;5048293;28;19939;-63
2021/07/04 03:48:12;;;;;;;;;;;;;;;;;;5041435;28;19932;-64
2021/07/04 03:50:39;;;;;;;;;;;;;;;;;;5049464;28;19986;-65
2021/07/04 03:53:06;;;;;;;;;;;;;;;;;;5046777;28;19931;-65
2021/07/04 03:55:33;;;;;;;;;;;;;;;;;;5042062;28;19926;-65
2021/07/04 03:57:59;;;;;;;;;;;;;;;;;;5044304;28;19925;-65
2021/07/04 04:00:26;;;;;;;;;;;;;;;;;;5039322;28;19929;-64
2021/07/04 04:02:53;;;;;;;;;;;;;;;;;;5043454;28;21533;-65
2021/07/04 04:05:20;;;;;;;;;;;;;;;;;;5043206;28;19925;-64
2021/07/04 04:07:47;;;;;;;;;;;;;;;;;;5043096;28;19932;-64
2021/07/04 04:10:14;;;;;;;;;;;;;;;;;;5048191;28;19925;-63
2021/07/04 04:12:41;;;;;;;;;;;;;;;;;;5044426;28;19932;-63
2021/07/04 04:15:08;;;;;;;;;;;;;;;;;;5047373;28;19925;-64
2021/07/04 04:17:35;;;;;;;;;;;;;;;;;;5047904;28;20281;-63
2021/07/04 04:20:02;;;;;;;;;;;;;;;;;;5048927;28;20675;-64
2021/07/04 04:22:29;;;;;;;;;;;;;;;;;;5042857;28;19925;-63
2021/07/04 04:24:56;;;;;;;;;;;;;;;;;;5044171;28;20016;-65
2021/07/04 04:27:23;;;;;;;;;;;;;;;;;;5040588;28;20393;-64
2021/07/04 04:29:50;;;;;;;;;;;;;;;;;;5035905;28;20420;-63
2021/07/04 04:32:17;;;;;;;;;;;;;;;;;;5036037;28;20384;-64
2021/07/04 04:34:44;;;;;;;;;;;;;;;;;;5042715;28;20372;-64
2021/07/04 04:37:11;;;;;;;;;;;;;;;;;;5044536;28;19990;-64
2021/07/04 04:39:38;;;;;;;;;;;;;;;;;;5040255;28;19925;-64
2021/07/04 04:42:05;;;;;;;;;;;;;;;;;;5049561;28;19947;-63
2021/07/04 04:44:32;;;;;;;;;;;;;;;;;;5047722;28;19924;-63
2021/07/04 04:46:59;;;;;;;;;;;;;;;;;;5047284;28;19936;-64
2021/07/04 04:49:26;;;;;;;;;;;;;;;;;;5046669;28;19944;-64
2021/07/04 04:51:53;;;;;;;;;;;;;;;;;;5043333;28;19933;-63
2021/07/04 04:54:19;;;;;;;;;;;;;;;;;;5044054;28;20021;-63
2021/07/04 04:56:46;;;;;;;;;;;;;;;;;;5047220;28;19936;-64
2021/07/04 04:59:13;;;;;;;;;;;;;;;;;;5045885;28;19939;-63
2021/07/04 05:01:40;;;;;;;;;;;;;;;;;;5045541;28;19925;-64
2021/07/04 05:04:09;;;;;;;;;;;;;;;;;;5043983;28;20308;-64
2021/07/04 05:06:36;;;;;;;;;;;;;;;;;;5043690;28;19929;-65
2021/07/04 05:09:03;;;;;;;;;;;;;;;;;;5048982;28;19924;-63
2021/07/04 05:11:30;;;;;;;;;;;;;;;;;;5045587;28;19939;-64
2021/07/04 05:13:57;;;;;;;;;;;;;;;;;;5032236;28;20690;-64
2021/07/04 05:16:23;;;;;;;;;;;;;;;;;;5035705;28;19925;-65
2021/07/04 05:18:50;;;;;;;;;;;;;;;;;;5044462;28;19925;-64
2021/07/04 05:21:17;;;;;;;;;;;;;;;;;;5037745;28;19924;-64
2021/07/04 05:23:44;;;;;;;;;;;;;;;;;;5034666;28;19932;-64
2021/07/04 05:26:11;;;;;;;;;;;;;;;;;;5045821;28;19929;-65
2021/07/04 05:28:40;;;;;;;;;;;;;;;;;;5048854;28;19928;-65
2021/07/04 05:31:07;;;;;;;;;;;;;;;;;;5045799;28;19925;-64
2021/07/04 05:33:34;;;;;;;;;;;;;;;;;;5041473;28;19924;-65
2021/07/04 05:36:01;;;;;;;;;;;;;;;;;;4974417;28;1770687;-64
2021/07/04 05:38:33;;;;;;;;;;;;;;;;;;5043185;28;20363;-65
2021/07/04 05:40:59;;;;;;;;;;;;;;;;;;5042124;28;19956;-64
2021/07/04 05:43:26;;;;;;;;;;;;;;;;;;5040862;28;19935;-65
2021/07/04 05:45:53;;;;;;;;;;;;;;;;;;5045544;28;19931;-65
2021/07/04 05:48:20;;;;;;;;;;;;;;;;;;5048429;28;19932;-66
2021/07/04 05:50:47;;;;;;;;;;;;;;;;;;5048707;28;20289;-64
2021/07/04 05:53:14;;;;;;;;;;;;;;;;;;5042026;28;19932;-65
2021/07/04 05:55:41;;;;;;;;;;;;;;;;;;5050199;28;19931;-65
2021/07/04 05:58:08;;;;;;;;;;;;;;;;;;5047963;28;19932;-65
2021/07/04 06:00:36;;;;;;;;;;;;;;;;;;5049653;28;19925;-64
2021/07/04 06:03:03;;;;;;;;;;;;;;;;;;5049892;28;19929;-65
2021/07/04 06:05:30;;;;;;;;;;;;;;;;;;5048991;28;20435;-65
2021/07/04 06:07:57;;;;;;;;;;;;;;;;;;5039517;28;19929;-64
2021/07/04 06:10:24;;;;;;;;;;;;;;;;;;5045686;28;19925;-65
2021/07/04 06:12:51;;;;;;;;;;;;;;;;;;5048622;28;19931;-64
2021/07/04 06:15:18;;;;;;;;;;;;;;;;;;5036505;28;19972;-65
2021/07/04 06:17:45;;;;;;;;;;;;;;;;;;5041898;28;20396;-65
2021/07/04 06:20:12;;;;;;;;;;;;;;;;;;5044708;28;19932;-65
2021/07/04 06:22:39;;;;;;;;;;;;;;;;;;5042838;28;19932;-65
2021/07/04 06:25:06;;;;;;;;;;;;;;;;;;5048714;28;20020;-65
2021/07/04 06:27:33;;;;;;;;;;;;;;;;;;5049819;28;19928;-63
2021/07/04 06:30:00;;;;;;;;;;;;;;;;;;5048248;28;19935;-64
2021/07/04 06:32:27;;;;;;;;;;;;;;;;;;5044711;28;19929;-63
2021/07/04 06:34:54;;;;;;;;;;;;;;;;;;5048393;28;19933;-65
2021/07/04 06:37:21;;;;;;;;;;;;;;;;;;5048923;28;19932;-64
2021/07/04 06:39:48;;;;;;;;;;;;;;;;;;5049377;28;20462;-66
2021/07/04 06:42:15;;;;;;;;;;;;;;;;;;5048987;28;19925;-65
2021/07/04 06:44:42;;;;;;;;;;;;;;;;;;5043587;28;19931;-64
2021/07/04 06:47:09;;;;;;;;;;;;;;;;;;5039148;28;20032;-64
2021/07/04 06:49:36;;;;;;;;;;;;;;;;;;5042572;28;19925;-64
2021/07/04 06:52:03;;;;;;;;;;;;;;;;;;5044652;28;19929;-66
2021/07/04 06:54:30;;;;;;;;;;;;;;;;;;5048965;28;20015;-65
2021/07/04 06:56:57;;;;;;;;;;;;;;;;;;5049732;28;19933;-65
2021/07/04 06:59:44;;;;;;;;;;;;;;;;;;5047086;28;20296;-64
2021/07/04 07:02:11;;;;;;;;;;;;;;;;;;5045653;28;20019;-67
2021/07/04 07:04:38;;;;;;;;;;;;;;;;;;5052072;28;19932;-64
2021/07/04 07:07:05;;;;;;;;;;;;;;;;;;5046846;28;20324;-65
2021/07/04 07:09:31;;;;;;;;;;;;;;;;;;5045590;28;19925;-66
2021/07/04 07:11:58;;;;;;;;;;;;;;;;;;5048754;28;20340;-65
2021/07/04 07:14:25;;;;;;;;;;;;;;;;;;5044745;28;19939;-66
2021/07/04 07:16:52;;;;;;;;;;;;;;;;;;5044604;28;19945;-64
2021/07/04 07:19:19;;;;;;;;;;;;;;;;;;5041871;28;20003;-64
2021/07/04 07:21:46;;;;;;;;;;;;;;;;;;5043856;28;19932;-65
2021/07/04 07:24:13;;;;;;;;;;;;;;;;;;5046361;28;20027;-65
2021/07/04 07:26:40;;;;;;;;;;;;;;;;;;5044885;28;19931;-66
2021/07/04 07:29:07;;;;;;;;;;;;;;;;;;5044499;28;20328;-67
2021/07/04 07:31:36;;;;;;;;;;;;;;;;;;5045489;28;20012;-66
2021/07/04 07:34:03;;;;;;;;;;;;;;;;;;5048526;28;19979;-64
2021/07/04 07:36:30;;;;;;;;;;;;;;;;;;5051361;28;20257;-62
2021/07/04 07:38:57;;;;;;;;;;;;;;;;;;5049315;28;19964;-62
2021/07/04 07:41:24;;;;;;;;;;;;;;;;;;5043774;28;19925;-62
2021/07/04 07:43:51;;;;;;;;;;;;;;;;;;5051066;28;20300;-62
2021/07/04 07:46:18;;;;;;;;;;;;;;;;;;5044197;28;19932;-62
2021/07/04 07:48:45;;;;;;;;;;;;;;;;;;5042476;28;19926;-63
2021/07/04 07:51:13;;;;;;;;;;;;;;;;;;5044884;28;19925;-63
2021/07/04 07:53:40;;;;;;;;;;;;;;;;;;5043278;28;19970;-63
2021/07/04 07:56:07;;;;;;;;;;;;;;;;;;5047935;28;20019;-62
2021/07/04 07:58:34;;;;;;;;;;;;;;;;;;5047527;28;19925;-62
2021/07/04 08:01:01;;;;;;;;;;;;;;;;;;5048389;28;19931;-63
2021/07/04 08:03:28;;;;;;;;;;;;;;;;;;5045464;28;19926;-62
2021/07/04 08:05:55;;;;;;;;;;;;;;;;;;5042414;28;19947;-63
2021/07/04 08:08:23;;;;;;;;;;;;;;;;;;5047361;28;19932;-62
2021/07/04 08:10:50;;;;;;;;;;;;;;;;;;5046877;28;20448;-63
2021/07/04 08:13:17;;;;;;;;;;;;;;;;;;5042266;28;19929;-63
2021/07/04 08:15:44;;;;;;;;;;;;;;;;;;5044774;28;19932;-62
2021/07/04 08:18:11;;;;;;;;;;;;;;;;;;5043929;28;19933;-62
2021/07/04 08:20:38;;;;;;;;;;;;;;;;;;5038966;28;19925;-63
2021/07/04 08:23:05;;;;;;;;;;;;;;;;;;5048724;28;20340;-62
2021/07/04 08:25:31;;;;;;;;;;;;;;;;;;5047395;28;19931;-63
2021/07/04 08:27:58;;;;;;;;;;;;;;;;;;5048694;28;20381;-63
2021/07/04 08:30:25;;;;;;;;;;;;;;;;;;5046889;28;19925;-63
2021/07/04 08:32:52;;;;;;;;;;;;;;;;;;5045527;28;20007;-63
2021/07/04 08:35:19;;;;;;;;;;;;;;;;;;5040850;28;20316;-64
2021/07/04 08:37:46;;;;;;;;;;;;;;;;;;5043125;28;19933;-64
2021/07/04 08:40:13;;;;;;;;;;;;;;;;;;5043060;28;19933;-63
2021/07/04 08:42:40;;;;;;;;;;;;;;;;;;5048553;28;19925;-66
2021/07/04 08:45:07;;;;;;;;;;;;;;;;;;5044998;28;20297;-65
2021/07/04 08:47:34;;;;;;;;;;;;;;;;;;5044957;28;20310;-65
2021/07/04 08:50:01;;;;;;;;;;;;;;;;;;5044671;28;19936;-65
2021/07/04 08:52:28;;;;;;;;;;;;;;;;;;5041305;28;20282;-65
2021/07/04 08:54:55;;;;;;;;;;;;;;;;;;5039954;28;19932;-64
2021/07/04 08:57:22;;;;;;;;;;;;;;;;;;5045524;28;20301;-64
2021/07/04 08:59:49;;;;;;;;;;;;;;;;;;5048671;28;19924;-67
2021/07/04 09:02:16;;;;;;;;;;;;;;;;;;5046631;28;19932;-65
2021/07/04 09:04:43;;;;;;;;;;;;;;;;;;5041455;28;20332;-66
2021/07/04 09:07:11;;;;;;;;;;;;;;;;;;5046092;28;20401;-66
2021/07/04 09:09:38;;;;;;;;;;;;;;;;;;5042365;28;20355;-66
2021/07/04 09:12:05;;;;;;;;;;;;;;;;;;5045560;28;19932;-65
2021/07/04 09:14:32;;;;;;;;;;;;;;;;;;5041644;28;20422;-65
2021/07/04 09:16:59;;;;;;;;;;;;;;;;;;5039764;28;19925;-65
2021/07/04 09:19:26;;;;;;;;;;;;;;;;;;5043729;28;19935;-65
2021/07/04 09:21:53;;;;;;;;;;;;;;;;;;5042090;28;20286;-65
2021/07/04 09:24:20;;;;;;;;;;;;;;;;;;5048319;28;19932;-65
2021/07/04 09:26:47;;;;;;;;;;;;;;;;;;5043330;28;19932;-66
2021/07/04 09:29:17;;;;;;;;;;;;;;;;;;5042272;28;19933;-65
2021/07/04 09:31:44;;;;;;;;;;;;;;;;;;5040979;28;19929;-64
2021/07/04 09:34:11;;;;;;;;;;;;;;;;;;5040990;28;19925;-66
2021/07/04 09:36:38;;;;;;;;;;;;;;;;;;5045744;28;19928;-65
2021/07/04 09:39:05;;;;;;;;;;;;;;;;;;5040520;28;19940;-64
2021/07/04 09:41:32;;;;;;;;;;;;;;;;;;5042344;28;20288;-65
2021/07/04 09:43:59;;;;;;;;;;;;;;;;;;5042734;28;19925;-66
2021/07/04 09:46:26;;;;;;;;;;;;;;;;;;5044129;28;19928;-64
2021/07/04 09:48:53;;;;;;;;;;;;;;;;;;5037517;28;20572;-65
2021/07/04 09:51:20;;;;;;;;;;;;;;;;;;5042107;28;19975;-66
2021/07/04 09:53:48;;;;;;;;;;;;;;;;;;5048056;28;19928;-65
2021/07/04 09:56:15;;;;;;;;;;;;;;;;;;5040722;28;20322;-65
2021/07/04 09:58:42;;;;;;;;;;;;;;;;;;5048435;28;19924;-65
2021/07/04 10:01:09;;;;;;;;;;;;;;;;;;5041793;28;19925;-64
2021/07/04 10:03:36;;;;;;;;;;;;;;;;;;5042442;28;20376;-64
2021/07/04 10:06:03;;;;;;;;;;;;;;;;;;5041843;28;19928;-65
2021/07/04 10:08:30;;;;;;;;;;;;;;;;;;5048997;28;19971;-64
2021/07/04 10:10:57;;;;;;;;;;;;;;;;;;5043325;28;19931;-64
2021/07/04 10:13:24;;;;;;;;;;;;;;;;;;5046633;28;19935;-65
2021/07/04 10:15:51;;;;;;;;;;;;;;;;;;5046730;28;20328;-66
2021/07/04 10:18:18;;;;;;;;;;;;;;;;;;5045525;28;20351;-65
2021/07/04 10:20:45;;;;;;;;;;;;;;;;;;5045793;28;20023;-65
2021/07/04 10:23:12;;;;;;;;;;;;;;;;;;5042565;28;19932;-65
2021/07/04 10:25:39;;;;;;;;;;;;;;;;;;5042339;28;19925;-66
2021/07/04 10:28:06;;;;;;;;;;;;;;;;;;5041666;28;20023;-65
2021/07/04 10:30:33;;;;;;;;;;;;;;;;;;5048262;28;19924;-65
2021/07/04 10:33:00;;;;;;;;;;;;;;;;;;5045661;28;19971;-64
2021/07/04 10:35:27;;;;;;;;;;;;;;;;;;5047880;28;20020;-64
2021/07/04 10:37:54;;;;;;;;;;;;;;;;;;5045325;28;20451;-65
2021/07/04 10:40:21;;;;;;;;;;;;;;;;;;5048562;28;19932;-66
2021/07/04 10:42:48;;;;;;;;;;;;;;;;;;5049974;28;19943;-66
2021/07/04 10:45:15;;;;;;;;;;;;;;;;;;5048106;28;19925;-66
2021/07/04 10:47:42;;;;;;;;;;;;;;;;;;5047481;28;19931;-65
2021/07/04 10:50:09;;;;;;;;;;;;;;;;;;5046871;28;19925;-64
2021/07/04 10:52:36;;;;;;;;;;;;;;;;;;5045663;28;19929;-64
2021/07/04 10:55:03;;;;;;;;;;;;;;;;;;5047814;28;19924;-64
2021/07/04 10:57:31;;;;;;;;;;;;;;;;;;5044998;28;19971;-65
2021/07/04 10:59:58;;;;;;;;;;;;;;;;;;5048799;28;19978;-64
2021/07/04 11:02:25;;;;;;;;;;;;;;;;;;5045608;28;19929;-65
2021/07/04 11:04:56;;;;;;;;;;;;;;;;;;5046577;28;20011;-65
2021/07/04 11:07:23;;;;;;;;;;;;;;;;;;5050610;28;19935;-65
2021/07/04 11:09:50;;;;;;;;;;;;;;;;;;5048668;28;19924;-65
2021/07/04 11:12:17;;;;;;;;;;;;;;;;;;5047616;28;19933;-65
2021/07/04 11:14:44;;;;;;;;;;;;;;;;;;5046012;28;19951;-66
2021/07/04 11:17:11;;;;;;;;;;;;;;;;;;5046703;28;19932;-65
2021/07/04 11:19:38;;;;;;;;;;;;;;;;;;5045218;28;19933;-65
2021/07/04 11:22:05;;;;;;;;;;;;;;;;;;5048342;28;20292;-64
2021/07/04 11:24:32;;;;;;;;;;;;;;;;;;5047879;28;19925;-65
2021/07/04 11:26:59;;;;;;;;;;;;;;;;;;5045017;28;19931;-67
2021/07/04 11:29:26;;;;;;;;;;;;;;;;;;5046653;28;19940;-65
2021/07/04 11:31:53;;;;;;;;;;;;;;;;;;5048719;28;19967;-64
2021/07/04 11:34:20;;;;;;;;;;;;;;;;;;5044962;28;19929;-64
2021/07/04 11:36:47;;;;;;;;;;;;;;;;;;5042469;28;19933;-65
2021/07/04 11:39:14;;;;;;;;;;;;;;;;;;5046629;28;19936;-65
2021/07/04 11:41:41;;;;;;;;;;;;;;;;;;5046439;28;19943;-65
2021/07/04 11:44:08;;;;;;;;;;;;;;;;;;5046489;28;20315;-65
2021/07/04 11:46:35;;;;;;;;;;;;;;;;;;5044597;28;19939;-65
2021/07/04 11:49:03;;;;;;;;;;;;;;;;;;5044999;28;19929;-65
2021/07/04 11:51:30;;;;;;;;;;;;;;;;;;5045622;28;19925;-65
2021/07/04 11:53:57;;;;;;;;;;;;;;;;;;5051906;28;19925;-64
2021/07/04 11:56:24;;;;;;;;;;;;;;;;;;5048308;28;19951;-65
2021/07/04 11:58:51;;;;;;;;;;;;;;;;;;5047461;28;19925;-64
2021/07/04 12:01:18;;;;;;;;;;;;;;;;;;5048099;28;19925;-65
2021/07/04 12:03:45;;;;;;;;;;;;;;;;;;5045940;28;19956;-65
2021/07/04 12:06:12;;;;;;;;;;;;;;;;;;5044803;28;19931;-65
2021/07/04 12:08:39;;;;;;;;;;;;;;;;;;5047379;28;19928;-65
2021/07/04 12:11:06;;;;;;;;;;;;;;;;;;5048052;28;19928;-66
2021/07/04 12:13:33;;;;;;;;;;;;;;;;;;5048508;28;19940;-65
2021/07/04 12:16:00;;;;;;;;;;;;;;;;;;5044000;28;20004;-65
2021/07/04 12:18:27;;;;;;;;;;;;;;;;;;5050452;28;19924;-65
2021/07/04 12:20:54;;;;;;;;;;;;;;;;;;5045430;28;20379;-66
2021/07/04 12:23:21;;;;;;;;;;;;;;;;;;5045029;28;19972;-64
2021/07/04 12:25:49;;;;;;;;;;;;;;;;;;5046134;28;20407;-67
2021/07/04 12:28:16;;;;;;;;;;;;;;;;;;5044820;28;20401;-65
2021/07/04 12:30:42;;;;;;;;;;;;;;;;;;5045720;28;19924;-67
2021/07/04 12:33:09;;;;;;;;;;;;;;;;;;5045068;28;19925;-66
2021/07/04 12:35:36;;;;;;;;;;;;;;;;;;5046771;28;20269;-67
2021/07/04 12:38:03;;;;;;;;;;;;;;;;;;5047441;28;19937;-67
2021/07/04 12:40:30;;;;;;;;;;;;;;;;;;5045457;28;19932;-65
2021/07/04 12:42:58;;;;;;;;;;;;;;;;;;5047924;28;19924;-66
2021/07/04 12:45:26;;;;;;;;;;;;;;;;;;5043230;28;19928;-66
2021/07/04 12:47:53;;;;;;;;;;;;;;;;;;5045421;28;19955;-64
2021/07/04 12:50:20;;;;;;;;;;;;;;;;;;5046837;28;19925;-64
2021/07/04 12:52:47;;;;;;;;;;;;;;;;;;5044770;28;19924;-65
2021/07/04 12:55:14;;;;;;;;;;;;;;;;;;5042568;28;19943;-67
2021/07/04 12:57:41;;;;;;;;;;;;;;;;;;5045400;28;19925;-66
2021/07/04 13:00:08;;;;;;;;;;;;;;;;;;5044425;28;19925;-65
2021/07/04 13:02:35;;;;;;;;;;;;;;;;;;5045019;28;19929;-63
2021/07/04 13:05:02;;;;;;;;;;;;;;;;;;5045258;28;19975;-65
2021/07/04 13:07:29;;;;;;;;;;;;;;;;;;5044711;28;19931;-66
2021/07/04 13:09:56;;;;;;;;;;;;;;;;;;5043168;28;20011;-65
2021/07/04 13:12:23;;;;;;;;;;;;;;;;;;5042333;28;20424;-66
2021/07/04 13:14:50;;;;;;;;;;;;;;;;;;5047789;28;19972;-66
2021/07/04 13:17:17;;;;;;;;;;;;;;;;;;5043816;28;19925;-65
2021/07/04 13:19:44;;;;;;;;;;;;;;;;;;5044610;28;19968;-66
2021/07/04 13:22:11;;;;;;;;;;;;;;;;;;5044543;28;19968;-67
2021/07/04 13:24:38;;;;;;;;;;;;;;;;;;5046964;28;19925;-66
2021/07/04 13:27:05;;;;;;;;;;;;;;;;;;5041757;28;19928;-66
2021/07/04 13:29:32;;;;;;;;;;;;;;;;;;5045857;28;20567;-64
2021/07/04 13:31:59;;;;;;;;;;;;;;;;;;5046456;28;19931;-66
2021/07/04 13:34:26;;;;;;;;;;;;;;;;;;5037939;28;19931;-66
2021/07/04 13:36:56;;;;;;;;;;;;;;;;;;5045714;28;19925;-65
2021/07/04 13:39:23;;;;;;;;;;;;;;;;;;5042782;28;20313;-64
2021/07/04 13:41:50;;;;;;;;;;;;;;;;;;5050439;28;19925;-66
2021/07/04 13:44:17;;;;;;;;;;;;;;;;;;5046594;28;20331;-66
2021/07/04 13:46:44;;;;;;;;;;;;;;;;;;5046118;28;19925;-65
2021/07/04 13:49:11;;;;;;;;;;;;;;;;;;5040912;28;19928;-66
2021/07/04 13:51:38;;;;;;;;;;;;;;;;;;5045709;28;20012;-65
2021/07/04 13:54:05;;;;;;;;;;;;;;;;;;5040554;28;19975;-65
2021/07/04 13:56:32;;;;;;;;;;;;;;;;;;5039536;28;19925;-65
2021/07/04 13:58:59;;;;;;;;;;;;;;;;;;5042454;28;19940;-65
2021/07/04 14:01:26;;;;;;;;;;;;;;;;;;5038585;28;20020;-65
2021/07/04 14:03:53;;;;;;;;;;;;;;;;;;5049609;28;19932;-65
2021/07/04 14:06:20;;;;;;;;;;;;;;;;;;5048673;28;19932;-64
2021/07/04 14:08:47;;;;;;;;;;;;;;;;;;5050695;28;19928;-64
2021/07/04 14:11:14;;;;;;;;;;;;;;;;;;5051235;28;19925;-64
2021/07/04 14:13:41;;;;;;;;;;;;;;;;;;5051146;28;19932;-65
2021/07/04 14:16:09;;;;;;;;;;;;;;;;;;5045779;28;19924;-65
2021/07/04 14:18:36;;;;;;;;;;;;;;;;;;5047701;28;20336;-65
2021/07/04 14:21:03;;;;;;;;;;;;;;;;;;5049321;28;19925;-65
2021/07/04 14:23:30;;;;;;;;;;;;;;;;;;5044692;28;19935;-65
2021/07/04 14:25:57;;;;;;;;;;;;;;;;;;5044520;28;19979;-65
2021/07/04 14:28:24;;;;;;;;;;;;;;;;;;5044855;28;19931;-65
2021/07/04 14:30:51;;;;;;;;;;;;;;;;;;5051933;28;19971;-65
2021/07/04 14:33:18;;;;;;;;;;;;;;;;;;5048794;28;19928;-65
2021/07/04 14:35:45;;;;;;;;;;;;;;;;;;5049937;28;19929;-65
2021/07/04 14:38:12;;;;;;;;;;;;;;;;;;5052011;28;19925;-65
2021/07/04 14:40:39;;;;;;;;;;;;;;;;;;5045826;28;19925;-65
2021/07/04 14:43:06;;;;;;;;;;;;;;;;;;5044587;28;19929;-65
2021/07/04 14:45:33;;;;;;;;;;;;;;;;;;5047923;28;19947;-65
2021/07/04 14:48:00;;;;;;;;;;;;;;;;;;5046880;28;19931;-65
2021/07/04 14:50:27;;;;;;;;;;;;;;;;;;5046857;28;20333;-65
2021/07/04 14:52:55;;;;;;;;;;;;;;;;;;5044529;28;19925;-65
2021/07/04 14:55:28;;;;;;;;;;;;;;;;;;5052237;28;19933;-65
2021/07/04 14:57:55;;;;;;;;;;;;;;;;;;5050483;28;20428;-65
2021/07/04 15:00:22;;;;;;;;;;;;;;;;;;5049802;28;20021;-65
2021/07/04 15:02:49;;;;;;;;;;;;;;;;;;5047356;28;20369;-65
2021/07/04 15:05:15;;;;;;;;;;;;;;;;;;5052214;28;19931;-65
2021/07/04 15:07:42;;;;;;;;;;;;;;;;;;5052492;28;19932;-64
2021/07/04 15:10:09;;;;;;;;;;;;;;;;;;5044846;28;19940;-65
2021/07/04 15:12:36;;;;;;;;;;;;;;;;;;5046554;28;20411;-64
2021/07/04 15:15:03;;;;;;;;;;;;;;;;;;5048624;28;19931;-64
2021/07/04 15:17:30;;;;;;;;;;;;;;;;;;5046837;28;19933;-64
2021/07/04 15:19:57;;;;;;;;;;;;;;;;;;5045559;28;19933;-65
2021/07/04 15:22:24;;;;;;;;;;;;;;;;;;5048345;28;19925;-65
2021/07/04 15:24:51;;;;;;;;;;;;;;;;;;5049384;28;19932;-64
2021/07/04 15:27:18;;;;;;;;;;;;;;;;;;5047827;28;19929;-65
2021/07/04 15:29:45;;;;;;;;;;;;;;;;;;5052588;28;19931;-65
2021/07/04 15:32:12;;;;;;;;;;;;;;;;;;5049314;28;19971;-65
2021/07/04 15:34:39;;;;;;;;;;;;;;;;;;5042323;28;19931;-65
2021/07/04 15:37:06;;;;;;;;;;;;;;;;;;5051227;28;19936;-65
2021/07/04 15:39:33;;;;;;;;;;;;;;;;;;5053028;28;19924;-65
2021/07/04 15:42:00;;;;;;;;;;;;;;;;;;5051201;28;20003;-65
2021/07/04 15:44:27;;;;;;;;;;;;;;;;;;5047712;28;19971;-65
2021/07/04 15:46:54;;;;;;;;;;;;;;;;;;5047640;28;19969;-64
2021/07/04 15:49:21;;;;;;;;;;;;;;;;;;5046192;28;20337;-65
2021/07/04 15:51:48;;;;;;;;;;;;;;;;;;5048744;28;19925;-66
2021/07/04 15:54:15;;;;;;;;;;;;;;;;;;5045866;28;19932;-66
2021/07/04 15:56:42;;;;;;;;;;;;;;;;;;5047553;28;20008;-66
2021/07/04 15:59:09;;;;;;;;;;;;;;;;;;5045315;28;19931;-63
2021/07/04 16:01:36;;;;;;;;;;;;;;;;;;5046533;28;20304;-65
2021/07/04 16:04:03;;;;;;;;;;;;;;;;;;5046528;28;19948;-66
2021/07/04 16:06:30;;;;;;;;;;;;;;;;;;5046779;28;19981;-66
2021/07/04 16:08:57;;;;;;;;;;;;;;;;;;5045813;28;19925;-65
2021/07/04 16:11:24;;;;;;;;;;;;;;;;;;5047709;28;20278;-65
2021/07/04 16:13:51;;;;;;;;;;;;;;;;;;5046968;28;19931;-67
2021/07/04 16:16:18;;;;;;;;;;;;;;;;;;5048016;28;20490;-64
2021/07/04 16:18:45;;;;;;;;;;;;;;;;;;5048355;28;19931;-65
2021/07/04 16:21:12;;;;;;;;;;;;;;;;;;5045131;28;19939;-65
2021/07/04 16:23:39;;;;;;;;;;;;;;;;;;5046634;28;19924;-65
2021/07/04 16:26:06;;;;;;;;;;;;;;;;;;5046543;28;19983;-64
2021/07/04 16:28:33;;;;;;;;;;;;;;;;;;5046533;28;20282;-66
2021/07/04 16:31:00;;;;;;;;;;;;;;;;;;5044285;28;19940;-66
2021/07/04 16:33:27;;;;;;;;;;;;;;;;;;5044678;28;19925;-65
2021/07/04 16:35:54;;;;;;;;;;;;;;;;;;5045138;28;20004;-66
2021/07/04 16:38:21;;;;;;;;;;;;;;;;;;5045616;28;19925;-65
2021/07/04 16:40:48;;;;;;;;;;;;;;;;;;5047688;28;19972;-64
2021/07/04 16:43:15;;;;;;;;;;;;;;;;;;5048329;28;20003;-64